Hoegh Transporter — LAKO7 — position and weather

sailwx.info

Track history (hours):
 
Tides and Currents Weather Stations Pressure Air Temp Water Temp Dewpoint Dewpoint Depression Visibility Wind Speed Wind Dir Waves Ship Positions

Hoegh Transporter

Last reported at 2014-Jul-26 21:29 UTC. Time now 2014-Jul-30 15:19 UTC.
Position N 01°10' E 103°48'.

Length 199 m; draft 9.5 m.

Type: Cargo ship. MMSI: 257712000.

Date/timePositionNaut miles runAvg speedWind from/ knotsBaromVisibWave heightAir tempDewpointWater temp
2014-Jul-26 21:29N 01°10' E 103°48'7 7.0
2014-Jul-26 20:34N 01°13' E 103°53'5 4.9
2014-Jul-26 19:32N 01°17' E 103°57'0 0.0
2014-Jul-26 18:32N 01°17' E 103°57'0 0.0
2014-Jul-26 17:32N 01°17' E 103°57'0 0.1
2014-Jul-26 16:32N 01°17' E 103°57'0 0.0
2014-Jul-26 15:32N 01°17' E 103°57'0 0.0
2014-Jul-26 14:32N 01°17' E 103°57'0 0.0
2014-Jul-26 13:29N 01°17' E 103°57'0 0.1
2014-Jul-26 12:32N 01°17' E 103°57'0 0.0
2014-Jul-26 11:29N 01°17' E 103°57'0 0.1
2014-Jul-26 10:29N 01°17' E 103°57'0 0.0
2014-Jul-26 09:32N 01°17' E 103°57'0 0.0
2014-Jul-26 08:29N 01°17' E 103°57'0 0.1
2014-Jul-26 07:32N 01°17' E 103°57'0 0.0
2014-Jul-26 06:32N 01°17' E 103°57'0 0.0
2014-Jul-26 05:32N 01°17' E 103°57'0 0.0
2014-Jul-26 04:32N 01°17' E 103°57'0 0.0
2014-Jul-26 03:32N 01°17' E 103°57'0 0.0
2014-Jul-26 02:32N 01°17' E 103°57'0 0.0
2014-Jul-26 01:29N 01°17' E 103°57'1 1.2
2014-Jul-26 00:33N 01°16' E 103°58'8 7.7
2014-Jul-25 23:33N 01°16' E 104°05'  
2014-Jul-21 15:29N 23°19' E 117°44'1718.3
2014-Jul-21 14:33N 23°32' E 117°57'1818.0
2014-Jul-21 13:33N 23°45' E 118°10'1818.2
2014-Jul-21 12:33N 23°58' E 118°24'1818.1
2014-Jul-21 11:33N 24°11' E 118°39'1817.8
2014-Jul-21 10:33N 24°22' E 118°54'1717.4
2014-Jul-21 09:33N 24°33' E 119°09'1717.0
2014-Jul-21 08:32N 24°44' E 119°23'80117.3
2014-Jul-19 10:18N 34°58' E 129°16'4 0.3
2014-Jul-18 19:30N 35°01' E 129°19'  
Track history (hours):
 
Tides and Currents Weather Stations Pressure Air Temp Water Temp Dewpoint Dewpoint Depression Visibility Wind Speed Wind Dir Waves Ship Positions

Hoegh Transporter

Last reported at 2014-Jul-26 21:29 UTC. Time now 2014-Jul-30 15:19 UTC.
Position N 01°10' E 103°48'.

Length 199 m; draft 9.5 m.

Type: Cargo ship. MMSI: 257712000.

Date/timePositionNaut miles runAvg speedWind from/ knotsBaromVisibWave heightAir tempDewpointWater temp
2014-Jul-26 21:29N 01°10' E 103°48'7 7.0
2014-Jul-26 20:34N 01°13' E 103°53'5 4.9
2014-Jul-26 19:32N 01°17' E 103°57'0 0.0
2014-Jul-26 18:32N 01°17' E 103°57'0 0.0
2014-Jul-26 17:32N 01°17' E 103°57'0 0.1
2014-Jul-26 16:32N 01°17' E 103°57'0 0.0
2014-Jul-26 15:32N 01°17' E 103°57'0 0.0
2014-Jul-26 14:32N 01°17' E 103°57'0 0.0
2014-Jul-26 13:29N 01°17' E 103°57'0 0.1
2014-Jul-26 12:32N 01°17' E 103°57'0 0.0
2014-Jul-26 11:29N 01°17' E 103°57'0 0.1
2014-Jul-26 10:29N 01°17' E 103°57'0 0.0
2014-Jul-26 09:32N 01°17' E 103°57'0 0.0
2014-Jul-26 08:29N 01°17' E 103°57'0 0.1
2014-Jul-26 07:32N 01°17' E 103°57'0 0.0
2014-Jul-26 06:32N 01°17' E 103°57'0 0.0
2014-Jul-26 05:32N 01°17' E 103°57'0 0.0
2014-Jul-26 04:32N 01°17' E 103°57'0 0.0
2014-Jul-26 03:32N 01°17' E 103°57'0 0.0
2014-Jul-26 02:32N 01°17' E 103°57'0 0.0
2014-Jul-26 01:29N 01°17' E 103°57'1 1.2
2014-Jul-26 00:33N 01°16' E 103°58'8 7.7
2014-Jul-25 23:33N 01°16' E 104°05'  
2014-Jul-21 15:29N 23°19' E 117°44'1718.3
2014-Jul-21 14:33N 23°32' E 117°57'1818.0
2014-Jul-21 13:33N 23°45' E 118°10'1818.2
2014-Jul-21 12:33N 23°58' E 118°24'1818.1
2014-Jul-21 11:33N 24°11' E 118°39'1817.8
2014-Jul-21 10:33N 24°22' E 118°54'1717.4
2014-Jul-21 09:33N 24°33' E 119°09'1717.0
2014-Jul-21 08:32N 24°44' E 119°23'80117.3
2014-Jul-19 10:18N 34°58' E 129°16'4 0.3
2014-Jul-18 19:30N 35°01' E 129°19'  

Dump ship's entire track history